sensor_id;sensor_type;location;lat;lon;timestamp;temperature;humidity
59067;DHT22;44854;50.838;4.438;2022-10-30T05:04:35;14.70;99.90
59067;DHT22;44854;50.838;4.438;2022-10-30T05:07:01;14.60;99.90
59067;DHT22;44854;50.838;4.438;2022-10-30T05:09:28;14.70;99.90
59067;DHT22;44854;50.838;4.438;2022-10-30T05:11:53;14.60;99.90
59067;DHT22;44854;50.838;4.438;2022-10-30T05:14:19;14.70;99.90
59067;DHT22;44854;50.838;4.438;2022-10-30T05:16:44;14.60;99.90
59067;DHT22;44854;50.838;4.438;2022-10-30T05:19:10;14.60;99.90
59067;DHT22;44854;50.838;4.438;2022-10-30T05:21:35;14.70;99.90
59067;DHT22;44854;50.838;4.438;2022-10-30T05:24:01;14.70;99.90
59067;DHT22;44854;50.838;4.438;2022-10-30T05:26:26;14.80;99.90
59067;DHT22;44854;50.838;4.438;2022-10-30T05:28:52;14.80;99.90
59067;DHT22;44854;50.838;4.438;2022-10-30T05:31:18;14.70;99.90
59067;DHT22;44854;50.838;4.438;2022-10-30T05:33:43;14.70;99.90
59067;DHT22;44854;50.838;4.438;2022-10-30T05:36:09;14.70;99.90
59067;DHT22;44854;50.838;4.438;2022-10-30T05:38:34;14.60;99.90
59067;DHT22;44854;50.838;4.438;2022-10-30T05:41:00;14.60;99.90
59067;DHT22;44854;50.838;4.438;2022-10-30T05:43:25;14.60;99.90
59067;DHT22;44854;50.838;4.438;2022-10-30T05:45:51;14.60;99.90
59067;DHT22;44854;50.838;4.438;2022-10-30T05:48:16;14.50;99.90
59067;DHT22;44854;50.838;4.438;2022-10-30T05:50:42;14.60;99.90
59067;DHT22;44854;50.838;4.438;2022-10-30T05:53:07;14.50;99.90
59067;DHT22;44854;50.838;4.438;2022-10-30T05:55:33;14.40;99.90
59067;DHT22;44854;50.838;4.438;2022-10-30T05:57:59;14.40;99.90
59067;DHT22;44854;50.838;4.438;2022-10-30T06:00:26;14.40;99.90
59067;DHT22;44854;50.838;4.438;2022-10-30T06:02:52;14.40;99.90
59067;DHT22;44854;50.838;4.438;2022-10-30T06:05:22;14.40;99.90
59067;DHT22;44854;50.838;4.438;2022-10-30T06:07:48;14.40;99.90
59067;DHT22;44854;50.838;4.438;2022-10-30T06:10:13;14.30;99.90
59067;DHT22;44854;50.838;4.438;2022-10-30T06:12:39;14.30;99.90
59067;DHT22;44854;50.838;4.438;2022-10-30T06:15:05;14.30;99.90
59067;DHT22;44854;50.838;4.438;2022-10-30T06:17:30;14.30;99.90
59067;DHT22;44854;50.838;4.438;2022-10-30T06:19:56;14.30;99.90
59067;DHT22;44854;50.838;4.438;2022-10-30T06:22:21;14.30;99.90
59067;DHT22;44854;50.838;4.438;2022-10-30T06:24:47;14.20;99.90
59067;DHT22;44854;50.838;4.438;2022-10-30T06:27:12;14.20;99.90
59067;DHT22;44854;50.838;4.438;2022-10-30T06:29:38;14.20;99.90
59067;DHT22;44854;50.838;4.438;2022-10-30T06:32:04;14.30;99.90
59067;DHT22;44854;50.838;4.438;2022-10-30T06:34:29;14.30;99.90
59067;DHT22;44854;50.838;4.438;2022-10-30T06:36:55;14.30;99.90
59067;DHT22;44854;50.838;4.438;2022-10-30T06:39:20;14.30;99.90
59067;DHT22;44854;50.838;4.438;2022-10-30T06:41:46;14.30;99.90
59067;DHT22;44854;50.838;4.438;2022-10-30T06:44:11;14.20;99.90
59067;DHT22;44854;50.838;4.438;2022-10-30T06:46:37;14.30;99.90
59067;DHT22;44854;50.838;4.438;2022-10-30T06:49:02;14.30;99.90
59067;DHT22;44854;50.838;4.438;2022-10-30T06:51:28;14.30;99.90
59067;DHT22;44854;50.838;4.438;2022-10-30T06:53:54;14.20;99.90
59067;DHT22;44854;50.838;4.438;2022-10-30T06:56:19;14.30;99.90
59067;DHT22;44854;50.838;4.438;2022-10-30T06:58:45;14.30;99.90
59067;DHT22;44854;50.838;4.438;2022-10-30T07:01:10;14.30;99.90
59067;DHT22;44854;50.838;4.438;2022-10-30T07:03:36;14.50;99.90
59067;DHT22;44854;50.838;4.438;2022-10-30T07:06:01;14.40;99.90
59067;DHT22;44854;50.838;4.438;2022-10-30T07:08:27;14.40;99.90
59067;DHT22;44854;50.838;4.438;2022-10-30T07:10:54;14.40;99.90
59067;DHT22;44854;50.838;4.438;2022-10-30T07:13:20;14.50;99.90
59067;DHT22;44854;50.838;4.438;2022-10-30T07:15:45;14.50;99.90
59067;DHT22;44854;50.838;4.438;2022-10-30T07:18:11;14.50;99.90
59067;DHT22;44854;50.838;4.438;2022-10-30T07:20:36;14.60;99.90
59067;DHT22;44854;50.838;4.438;2022-10-30T07:23:02;14.60;99.90
59067;DHT22;44854;50.838;4.438;2022-10-30T07:25:28;14.70;99.90
59067;DHT22;44854;50.838;4.438;2022-10-30T07:27:54;14.60;99.90
59067;DHT22;44854;50.838;4.438;2022-10-30T07:30:21;14.70;99.90
59067;DHT22;44854;50.838;4.438;2022-10-30T07:32:59;14.60;99.90
59067;DHT22;44854;50.838;4.438;2022-10-30T07:35:25;14.60;99.90
59067;DHT22;44854;50.838;4.438;2022-10-30T07:37:51;14.60;99.90
59067;DHT22;44854;50.838;4.438;2022-10-30T07:40:17;14.70;99.90
59067;DHT22;44854;50.838;4.438;2022-10-30T07:42:42;14.70;99.90
59067;DHT22;44854;50.838;4.438;2022-10-30T07:45:08;14.80;99.90
59067;DHT22;44854;50.838;4.438;2022-10-30T07:47:37;14.80;99.90
59067;DHT22;44854;50.838;4.438;2022-10-30T07:50:03;14.90;99.90
59067;DHT22;44854;50.838;4.438;2022-10-30T07:52:31;14.90;99.90
59067;DHT22;44854;50.838;4.438;2022-10-30T07:54:57;15.00;99.90
59067;DHT22;44854;50.838;4.438;2022-10-30T07:57:23;15.20;99.90
59067;DHT22;44854;50.838;4.438;2022-10-30T07:59:48;15.10;99.90
59067;DHT22;44854;50.838;4.438;2022-10-30T08:02:13;15.10;99.90
59067;DHT22;44854;50.838;4.438;2022-10-30T08:04:39;15.30;99.90
59067;DHT22;44854;50.838;4.438;2022-10-30T08:07:05;15.40;99.90
59067;DHT22;44854;50.838;4.438;2022-10-30T08:09:30;15.60;99.90
59067;DHT22;44854;50.838;4.438;2022-10-30T08:11:56;15.70;99.90
59067;DHT22;44854;50.838;4.438;2022-10-30T08:14:21;15.70;99.90
59067;DHT22;44854;50.838;4.438;2022-10-30T08:16:50;15.90;99.90
59067;DHT22;44854;50.838;4.438;2022-10-30T08:19:16;16.10;99.90
59067;DHT22;44854;50.838;4.438;2022-10-30T08:21:41;16.30;99.90
59067;DHT22;44854;50.838;4.438;2022-10-30T08:24:07;16.40;99.90
59067;DHT22;44854;50.838;4.438;2022-10-30T08:26:32;16.50;99.90
59067;DHT22;44854;50.838;4.438;2022-10-30T08:28:58;16.50;99.90
59067;DHT22;44854;50.838;4.438;2022-10-30T08:31:24;16.60;99.90
59067;DHT22;44854;50.838;4.438;2022-10-30T08:33:49;16.70;99.90
59067;DHT22;44854;50.838;4.438;2022-10-30T08:36:15;16.70;99.90
59067;DHT22;44854;50.838;4.438;2022-10-30T08:38:40;16.90;99.90
59067;DHT22;44854;50.838;4.438;2022-10-30T08:41:06;17.00;99.90
59067;DHT22;44854;50.838;4.438;2022-10-30T08:43:31;17.00;99.90
59067;DHT22;44854;50.838;4.438;2022-10-30T08:45:57;17.00;99.90
59067;DHT22;44854;50.838;4.438;2022-10-30T08:48:22;16.90;99.90
59067;DHT22;44854;50.838;4.438;2022-10-30T08:50:48;16.90;99.90
59067;DHT22;44854;50.838;4.438;2022-10-30T08:53:13;17.00;99.90
59067;DHT22;44854;50.838;4.438;2022-10-30T08:55:39;17.10;99.90
59067;DHT22;44854;50.838;4.438;2022-10-30T08:58:05;17.20;99.90
59067;DHT22;44854;50.838;4.438;2022-10-30T09:00:30;17.40;99.90
59067;DHT22;44854;50.838;4.438;2022-10-30T09:02:56;17.50;99.90
59067;DHT22;44854;50.838;4.438;2022-10-30T09:05:22;17.60;99.90
59067;DHT22;44854;50.838;4.438;2022-10-30T09:07:47;17.80;99.90
59067;DHT22;44854;50.838;4.438;2022-10-30T09:10:13;17.70;99.90
59067;DHT22;44854;50.838;4.438;2022-10-30T09:12:39;17.80;99.90
59067;DHT22;44854;50.838;4.438;2022-10-30T09:15:04;17.70;99.90
59067;DHT22;44854;50.838;4.438;2022-10-30T09:17:30;17.90;99.90
59067;DHT22;44854;50.838;4.438;2022-10-30T09:19:56;17.70;99.90
59067;DHT22;44854;50.838;4.438;2022-10-30T09:22:21;17.80;99.90
59067;DHT22;44854;50.838;4.438;2022-10-30T09:24:47;18.00;99.90
59067;DHT22;44854;50.838;4.438;2022-10-30T09:27:12;18.20;99.90
59067;DHT22;44854;50.838;4.438;2022-10-30T09:29:39;18.40;99.90
59067;DHT22;44854;50.838;4.438;2022-10-30T09:32:04;18.40;99.90
59067;DHT22;44854;50.838;4.438;2022-10-30T09:34:34;18.40;99.90
59067;DHT22;44854;50.838;4.438;2022-10-30T09:37:00;18.50;99.90
59067;DHT22;44854;50.838;4.438;2022-10-30T09:39:26;18.70;99.90
59067;DHT22;44854;50.838;4.438;2022-10-30T09:52:05;19.50;99.90
59067;DHT22;44854;50.838;4.438;2022-10-30T09:57:32;19.80;99.90
59067;DHT22;44854;50.838;4.438;2022-10-30T10:00:07;19.80;99.90
59067;DHT22;44854;50.838;4.438;2022-10-30T10:07:36;19.60;99.90
59067;DHT22;44854;50.838;4.438;2022-10-30T10:10:04;19.60;99.90
59067;DHT22;44854;50.838;4.438;2022-10-30T10:14:56;20.00;99.90
59067;DHT22;44854;50.838;4.438;2022-10-30T10:17:30;20.00;99.90
59067;DHT22;44854;50.838;4.438;2022-10-30T10:19:58;19.90;99.90
59067;DHT22;44854;50.838;4.438;2022-10-30T10:22:25;19.80;99.90
59067;DHT22;44854;50.838;4.438;2022-10-30T10:24:53;20.00;99.90
59067;DHT22;44854;50.838;4.438;2022-10-30T10:30:10;20.20;99.90
59067;DHT22;44854;50.838;4.438;2022-10-30T10:32:44;20.30;99.90
59067;DHT22;44854;50.838;4.438;2022-10-30T10:53:23;20.70;99.90
59067;DHT22;44854;50.838;4.438;2022-10-30T10:55:52;20.70;99.90
59067;DHT22;44854;50.838;4.438;2022-10-30T11:00:46;20.30;99.90
59067;DHT22;44854;50.838;4.438;2022-10-30T11:03:14;20.10;99.90
59067;DHT22;44854;50.838;4.438;2022-10-30T11:05:53;20.30;99.90
59067;DHT22;44854;50.838;4.438;2022-10-30T11:08:30;20.30;99.90
59067;DHT22;44854;50.838;4.438;2022-10-30T11:11:00;20.50;99.90
59067;DHT22;44854;50.838;4.438;2022-10-30T11:13:29;20.50;99.90
59067;DHT22;44854;50.838;4.438;2022-10-30T11:18:41;20.30;99.90
59067;DHT22;44854;50.838;4.438;2022-10-30T11:21:12;20.60;99.90
59067;DHT22;44854;50.838;4.438;2022-10-30T11:23:41;20.70;99.90
59067;DHT22;44854;50.838;4.438;2022-10-30T11:28:47;20.90;99.90
59067;DHT22;44854;50.838;4.438;2022-10-30T11:31:21;21.10;99.90
59067;DHT22;44854;50.838;4.438;2022-10-30T11:33:48;21.10;99.90
59067;DHT22;44854;50.838;4.438;2022-10-30T11:36:14;21.20;99.90
59067;DHT22;44854;50.838;4.438;2022-10-30T11:38:40;21.20;99.90
59067;DHT22;44854;50.838;4.438;2022-10-30T11:41:05;21.00;99.90
59067;DHT22;44854;50.838;4.438;2022-10-30T11:43:34;20.80;99.90
59067;DHT22;44854;50.838;4.438;2022-10-30T11:46:01;20.70;99.90
59067;DHT22;44854;50.838;4.438;2022-10-30T11:48:28;20.70;99.90
59067;DHT22;44854;50.838;4.438;2022-10-30T11:50:58;20.70;99.90
59067;DHT22;44854;50.838;4.438;2022-10-30T11:53:25;20.80;99.90
59067;DHT22;44854;50.838;4.438;2022-10-30T11:55:55;20.70;99.90
59067;DHT22;44854;50.838;4.438;2022-10-30T11:58:28;20.80;99.90
59067;DHT22;44854;50.838;4.438;2022-10-30T12:01:28;21.00;99.90
59067;DHT22;44854;50.838;4.438;2022-10-30T12:03:46;20.90;99.90
59067;DHT22;44854;50.838;4.438;2022-10-30T12:06:19;21.00;99.90
59067;DHT22;44854;50.838;4.438;2022-10-30T12:11:30;21.10;99.90
59067;DHT22;44854;50.838;4.438;2022-10-30T12:13:56;21.10;99.90
59067;DHT22;44854;50.838;4.438;2022-10-30T12:16:22;21.10;99.90
59067;DHT22;44854;50.838;4.438;2022-10-30T12:19:01;20.90;99.90
59067;DHT22;44854;50.838;4.438;2022-10-30T12:21:35;20.70;99.90
59067;DHT22;44854;50.838;4.438;2022-10-30T12:24:02;20.70;99.90
59067;DHT22;44854;50.838;4.438;2022-10-30T12:26:31;20.70;99.90
59067;DHT22;44854;50.838;4.438;2022-10-30T12:29:01;20.80;99.90
59067;DHT22;44854;50.838;4.438;2022-10-30T12:31:38;21.00;99.90
59067;DHT22;44854;50.838;4.438;2022-10-30T12:36:47;21.10;99.90
59067;DHT22;44854;50.838;4.438;2022-10-30T12:39:24;21.30;99.90
59067;DHT22;44854;50.838;4.438;2022-10-30T12:41:58;21.10;99.90
59067;DHT22;44854;50.838;4.438;2022-10-30T12:44:29;20.90;99.90
59067;DHT22;44854;50.838;4.438;2022-10-30T12:52:05;20.80;99.90
59067;DHT22;44854;50.838;4.438;2022-10-30T12:57:17;20.60;99.90
59067;DHT22;44854;50.838;4.438;2022-10-30T13:05:24;21.20;99.90
59067;DHT22;44854;50.838;4.438;2022-10-30T13:07:53;21.30;99.90
59067;DHT22;44854;50.838;4.438;2022-10-30T13:12:48;21.40;99.90
59067;DHT22;44854;50.838;4.438;2022-10-30T13:15:20;21.20;99.90
59067;DHT22;44854;50.838;4.438;2022-10-30T13:17:48;21.00;99.90
59067;DHT22;44854;50.838;4.438;2022-10-30T13:20:13;21.00;99.90
59067;DHT22;44854;50.838;4.438;2022-10-30T13:30:08;21.20;99.90
59067;DHT22;44854;50.838;4.438;2022-10-30T13:32:42;21.20;99.90
59067;DHT22;44854;50.838;4.438;2022-10-30T13:38:05;21.20;99.90
59067;DHT22;44854;50.838;4.438;2022-10-30T13:40:36;21.00;99.90
59067;DHT22;44854;50.838;4.438;2022-10-30T13:53:22;21.00;99.90
59067;DHT22;44854;50.838;4.438;2022-10-30T13:55:50;21.00;99.90
59067;DHT22;44854;50.838;4.438;2022-10-30T13:58:20;21.00;99.90
59067;DHT22;44854;50.838;4.438;2022-10-30T14:06:04;21.10;99.90
59067;DHT22;44854;50.838;4.438;2022-10-30T14:11:10;20.70;99.90
59067;DHT22;44854;50.838;4.438;2022-10-30T14:16:30;20.60;99.90
59067;DHT22;44854;50.838;4.438;2022-10-30T14:24:12;20.60;99.90
59067;DHT22;44854;50.838;4.438;2022-10-30T14:26:40;20.60;99.90
59067;DHT22;44854;50.838;4.438;2022-10-30T14:31:52;20.40;99.90
59067;DHT22;44854;50.838;4.438;2022-10-30T14:37:06;20.50;99.90
59067;DHT22;44854;50.838;4.438;2022-10-30T14:39:41;20.40;99.90
59067;DHT22;44854;50.838;4.438;2022-10-30T14:42:12;20.30;99.90
59067;DHT22;44854;50.838;4.438;2022-10-30T14:44:55;20.30;99.90
59067;DHT22;44854;50.838;4.438;2022-10-30T14:50:02;20.50;99.90
59067;DHT22;44854;50.838;4.438;2022-10-30T14:52:37;20.20;99.90
59067;DHT22;44854;50.838;4.438;2022-10-30T14:55:24;20.10;99.90
59067;DHT22;44854;50.838;4.438;2022-10-30T14:57:53;20.00;99.90
59067;DHT22;44854;50.838;4.438;2022-10-30T15:03:30;19.80;99.90
59067;DHT22;44854;50.838;4.438;2022-10-30T15:05:56;19.70;99.90
59067;DHT22;44854;50.838;4.438;2022-10-30T15:13:35;19.60;99.90
59067;DHT22;44854;50.838;4.438;2022-10-30T15:16:01;19.50;99.90
59067;DHT22;44854;50.838;4.438;2022-10-30T15:18:28;19.40;99.90
59067;DHT22;44854;50.838;4.438;2022-10-30T15:20:54;19.30;99.90
59067;DHT22;44854;50.838;4.438;2022-10-30T15:23:23;19.30;99.90
59067;DHT22;44854;50.838;4.438;2022-10-30T15:25:50;19.30;99.90
59067;DHT22;44854;50.838;4.438;2022-10-30T15:28:20;19.20;99.90
59067;DHT22;44854;50.838;4.438;2022-10-30T15:33:25;19.20;99.90
59067;DHT22;44854;50.838;4.438;2022-10-30T15:35:51;19.10;99.90
59067;DHT22;44854;50.838;4.438;2022-10-30T15:38:17;19.00;99.90
59067;DHT22;44854;50.838;4.438;2022-10-30T15:40:42;19.00;99.90
59067;DHT22;44854;50.838;4.438;2022-10-30T15:43:10;19.00;99.90
59067;DHT22;44854;50.838;4.438;2022-10-30T15:45:44;19.00;99.90
59067;DHT22;44854;50.838;4.438;2022-10-30T15:50:36;19.00;99.90
59067;DHT22;44854;50.838;4.438;2022-10-30T15:53:04;19.10;99.90
59067;DHT22;44854;50.838;4.438;2022-10-30T15:55:30;19.20;99.90
59067;DHT22;44854;50.838;4.438;2022-10-30T15:58:01;19.10;99.90
59067;DHT22;44854;50.838;4.438;2022-10-30T16:00:31;19.10;99.90
59067;DHT22;44854;50.838;4.438;2022-10-30T16:05:36;19.00;99.90
59067;DHT22;44854;50.838;4.438;2022-10-30T16:08:02;19.00;99.90
59067;DHT22;44854;50.838;4.438;2022-10-30T16:10:31;19.00;99.90
59067;DHT22;44854;50.838;4.438;2022-10-30T16:12:58;19.00;99.90
59067;DHT22;44854;50.838;4.438;2022-10-30T16:15:31;18.90;99.90
59067;DHT22;44854;50.838;4.438;2022-10-30T16:20:33;19.00;99.90
59067;DHT22;44854;50.838;4.438;2022-10-30T16:23:00;19.10;99.90
59067;DHT22;44854;50.838;4.438;2022-10-30T16:25:26;19.10;99.90
59067;DHT22;44854;50.838;4.438;2022-10-30T16:27:51;19.10;99.90
59067;DHT22;44854;50.838;4.438;2022-10-30T16:30:17;19.20;99.90
59067;DHT22;44854;50.838;4.438;2022-10-30T16:32:44;19.10;99.90
59067;DHT22;44854;50.838;4.438;2022-10-30T16:35:15;19.20;99.90
59067;DHT22;44854;50.838;4.438;2022-10-30T16:37:41;19.20;99.90
59067;DHT22;44854;50.838;4.438;2022-10-30T16:40:14;19.10;99.90
59067;DHT22;44854;50.838;4.438;2022-10-30T16:42:43;19.10;99.90
59067;DHT22;44854;50.838;4.438;2022-10-30T16:47:38;19.00;99.90
59067;DHT22;44854;50.838;4.438;2022-10-30T16:50:05;19.00;99.90
59067;DHT22;44854;50.838;4.438;2022-10-30T16:52:34;19.00;99.90
59067;DHT22;44854;50.838;4.438;2022-10-30T16:55:12;18.90;99.90
59067;DHT22;44854;50.838;4.438;2022-10-30T16:57:42;18.90;99.90
59067;DHT22;44854;50.838;4.438;2022-10-30T17:00:18;18.90;99.90
59067;DHT22;44854;50.838;4.438;2022-10-30T17:02:45;18.90;99.90
59067;DHT22;44854;50.838;4.438;2022-10-30T17:05:19;18.90;99.90
59067;DHT22;44854;50.838;4.438;2022-10-30T17:07:56;18.80;99.90
59067;DHT22;44854;50.838;4.438;2022-10-30T17:10:41;18.80;99.90
59067;DHT22;44854;50.838;4.438;2022-10-30T17:15:51;18.90;99.90
59067;DHT22;44854;50.838;4.438;2022-10-30T17:18:16;18.80;99.90
59067;DHT22;44854;50.838;4.438;2022-10-30T17:20:45;18.60;99.90
59067;DHT22;44854;50.838;4.438;2022-10-30T17:23:15;18.70;99.90
59067;DHT22;44854;50.838;4.438;2022-10-30T17:25:42;18.60;99.90
59067;DHT22;44854;50.838;4.438;2022-10-30T17:28:23;18.50;99.90
59067;DHT22;44854;50.838;4.438;2022-10-30T17:30:50;18.60;99.90
59067;DHT22;44854;50.838;4.438;2022-10-30T17:33:34;18.60;99.90
59067;DHT22;44854;50.838;4.438;2022-10-30T17:36:01;18.60;99.90
59067;DHT22;44854;50.838;4.438;2022-10-30T17:38:26;18.50;99.90
59067;DHT22;44854;50.838;4.438;2022-10-30T17:40:52;18.30;99.90
59067;DHT22;44854;50.838;4.438;2022-10-30T17:43:18;18.30;99.90
59067;DHT22;44854;50.838;4.438;2022-10-30T17:45:43;18.40;99.90
59067;DHT22;44854;50.838;4.438;2022-10-30T17:48:13;18.40;99.90
59067;DHT22;44854;50.838;4.438;2022-10-30T17:50:39;18.60;99.90
59067;DHT22;44854;50.838;4.438;2022-10-30T17:53:05;18.60;99.90
59067;DHT22;44854;50.838;4.438;2022-10-30T17:55:31;18.60;99.90
59067;DHT22;44854;50.838;4.438;2022-10-30T17:57:58;18.60;99.90
59067;DHT22;44854;50.838;4.438;2022-10-30T18:00:23;18.50;99.90
59067;DHT22;44854;50.838;4.438;2022-10-30T18:02:49;18.60;99.90
59067;DHT22;44854;50.838;4.438;2022-10-30T18:05:17;18.60;99.90
59067;DHT22;44854;50.838;4.438;2022-10-30T18:07:44;18.40;99.90
59067;DHT22;44854;50.838;4.438;2022-10-30T18:10:10;18.50;99.90
59067;DHT22;44854;50.838;4.438;2022-10-30T18:12:35;18.40;99.90
59067;DHT22;44854;50.838;4.438;2022-10-30T18:15:10;18.40;99.90
59067;DHT22;44854;50.838;4.438;2022-10-30T18:17:40;18.40;99.90
59067;DHT22;44854;50.838;4.438;2022-10-30T18:20:06;18.40;99.90
59067;DHT22;44854;50.838;4.438;2022-10-30T18:22:32;18.30;99.90
59067;DHT22;44854;50.838;4.438;2022-10-30T18:24:57;18.20;99.90
59067;DHT22;44854;50.838;4.438;2022-10-30T18:27:25;18.10;99.90
59067;DHT22;44854;50.838;4.438;2022-10-30T18:29:50;18.20;99.90
59067;DHT22;44854;50.838;4.438;2022-10-30T18:32:16;18.20;99.90
59067;DHT22;44854;50.838;4.438;2022-10-30T18:34:41;18.20;99.90
59067;DHT22;44854;50.838;4.438;2022-10-30T18:37:07;18.20;99.90
59067;DHT22;44854;50.838;4.438;2022-10-30T18:39:33;18.20;99.90
59067;DHT22;44854;50.838;4.438;2022-10-30T18:41:58;18.30;99.90
59067;DHT22;44854;50.838;4.438;2022-10-30T18:44:24;18.20;99.90
59067;DHT22;44854;50.838;4.438;2022-10-30T18:46:49;18.10;99.90
59067;DHT22;44854;50.838;4.438;2022-10-30T18:49:15;18.10;99.90
59067;DHT22;44854;50.838;4.438;2022-10-30T18:51:40;17.90;99.90
59067;DHT22;44854;50.838;4.438;2022-10-30T18:54:15;18.10;99.90
59067;DHT22;44854;50.838;4.438;2022-10-30T18:56:41;18.20;99.90
59067;DHT22;44854;50.838;4.438;2022-10-30T18:59:06;18.20;99.90
59067;DHT22;44854;50.838;4.438;2022-10-30T19:01:32;18.10;99.90
59067;DHT22;44854;50.838;4.438;2022-10-30T19:03:59;18.10;99.90
59067;DHT22;44854;50.838;4.438;2022-10-30T19:06:28;18.20;99.90
59067;DHT22;44854;50.838;4.438;2022-10-30T19:08:54;18.10;99.90
59067;DHT22;44854;50.838;4.438;2022-10-30T19:11:19;18.00;99.90
59067;DHT22;44854;50.838;4.438;2022-10-30T19:13:45;18.00;99.90
59067;DHT22;44854;50.838;4.438;2022-10-30T19:16:14;18.30;99.90
59067;DHT22;44854;50.838;4.438;2022-10-30T19:18:41;18.50;99.90
59067;DHT22;44854;50.838;4.438;2022-10-30T19:21:08;18.50;99.90
59067;DHT22;44854;50.838;4.438;2022-10-30T19:23:35;18.30;99.90
59067;DHT22;44854;50.838;4.438;2022-10-30T19:26:01;17.70;99.90
59067;DHT22;44854;50.838;4.438;2022-10-30T19:28:27;17.30;99.90
59067;DHT22;44854;50.838;4.438;2022-10-30T19:30:54;17.20;99.90
59067;DHT22;44854;50.838;4.438;2022-10-30T19:33:21;17.40;99.90
59067;DHT22;44854;50.838;4.438;2022-10-30T19:35:53;17.50;99.90
59067;DHT22;44854;50.838;4.438;2022-10-30T19:38:19;17.70;99.90
59067;DHT22;44854;50.838;4.438;2022-10-30T19:40:44;17.70;99.90
59067;DHT22;44854;50.838;4.438;2022-10-30T19:43:10;17.40;99.90
59067;DHT22;44854;50.838;4.438;2022-10-30T19:45:35;17.10;99.90
59067;DHT22;44854;50.838;4.438;2022-10-30T19:48:05;17.00;99.90
59067;DHT22;44854;50.838;4.438;2022-10-30T19:50:37;17.00;99.90
59067;DHT22;44854;50.838;4.438;2022-10-30T19:53:04;17.10;99.90
59067;DHT22;44854;50.838;4.438;2022-10-30T19:55:30;17.10;99.90
59067;DHT22;44854;50.838;4.438;2022-10-30T19:57:56;17.10;99.90
59067;DHT22;44854;50.838;4.438;2022-10-30T20:02:51;16.90;99.90
59067;DHT22;44854;50.838;4.438;2022-10-30T20:05:18;17.00;99.90
59067;DHT22;44854;50.838;4.438;2022-10-30T20:07:54;16.90;99.90
59067;DHT22;44854;50.838;4.438;2022-10-30T20:10:20;16.90;99.90
59067;DHT22;44854;50.838;4.438;2022-10-30T20:12:46;17.10;99.90
59067;DHT22;44854;50.838;4.438;2022-10-30T20:15:16;16.90;99.90
59067;DHT22;44854;50.838;4.438;2022-10-30T20:17:42;16.70;99.90
59067;DHT22;44854;50.838;4.438;2022-10-30T20:20:11;16.80;99.90
59067;DHT22;44854;50.838;4.438;2022-10-30T20:22:37;16.70;99.90
59067;DHT22;44854;50.838;4.438;2022-10-30T20:25:02;16.90;99.90
59067;DHT22;44854;50.838;4.438;2022-10-30T20:27:28;16.80;99.90
59067;DHT22;44854;50.838;4.438;2022-10-30T20:29:54;16.80;99.90
59067;DHT22;44854;50.838;4.438;2022-10-30T20:32:19;16.90;99.90
59067;DHT22;44854;50.838;4.438;2022-10-30T20:34:45;17.00;99.90
59067;DHT22;44854;50.838;4.438;2022-10-30T20:37:10;17.10;99.90
59067;DHT22;44854;50.838;4.438;2022-10-30T20:39:36;17.20;99.90
59067;DHT22;44854;50.838;4.438;2022-10-30T20:42:01;17.20;99.90
59067;DHT22;44854;50.838;4.438;2022-10-30T20:44:26;17.00;99.90
59067;DHT22;44854;50.838;4.438;2022-10-30T20:46:52;16.90;99.90
59067;DHT22;44854;50.838;4.438;2022-10-30T20:49:17;16.90;99.90
59067;DHT22;44854;50.838;4.438;2022-10-30T20:51:43;16.90;99.90
59067;DHT22;44854;50.838;4.438;2022-10-30T20:54:09;16.90;99.90
59067;DHT22;44854;50.838;4.438;2022-10-30T20:56:34;16.90;99.90
59067;DHT22;44854;50.838;4.438;2022-10-30T20:59:00;17.00;99.90
59067;DHT22;44854;50.838;4.438;2022-10-30T21:01:25;17.00;99.90
59067;DHT22;44854;50.838;4.438;2022-10-30T21:03:51;17.00;99.90
59067;DHT22;44854;50.838;4.438;2022-10-30T21:06:16;17.00;99.90
59067;DHT22;44854;50.838;4.438;2022-10-30T21:08:42;16.90;99.90
59067;DHT22;44854;50.838;4.438;2022-10-30T21:11:07;16.90;99.90
59067;DHT22;44854;50.838;4.438;2022-10-30T21:13:33;16.80;99.90
59067;DHT22;44854;50.838;4.438;2022-10-30T21:16:00;17.00;99.90
59067;DHT22;44854;50.838;4.438;2022-10-30T21:18:26;17.00;99.90
59067;DHT22;44854;50.838;4.438;2022-10-30T21:20:51;16.70;99.90
59067;DHT22;44854;50.838;4.438;2022-10-30T21:23:17;16.60;99.90
59067;DHT22;44854;50.838;4.438;2022-10-30T21:25:42;16.60;99.90
59067;DHT22;44854;50.838;4.438;2022-10-30T21:28:08;16.50;99.90
59067;DHT22;44854;50.838;4.438;2022-10-30T21:30:33;16.60;99.90
59067;DHT22;44854;50.838;4.438;2022-10-30T21:32:59;17.00;99.90
59067;DHT22;44854;50.838;4.438;2022-10-30T21:35:24;17.00;99.90
59067;DHT22;44854;50.838;4.438;2022-10-30T21:37:50;17.00;99.90
59067;DHT22;44854;50.838;4.438;2022-10-30T21:40:16;16.90;99.90
59067;DHT22;44854;50.838;4.438;2022-10-30T21:42:41;17.00;99.90
59067;DHT22;44854;50.838;4.438;2022-10-30T21:45:07;16.90;99.90
59067;DHT22;44854;50.838;4.438;2022-10-30T21:47:33;16.70;99.90
59067;DHT22;44854;50.838;4.438;2022-10-30T21:49:58;16.70;99.90
59067;DHT22;44854;50.838;4.438;2022-10-30T21:52:24;16.70;99.90
59067;DHT22;44854;50.838;4.438;2022-10-30T21:54:49;16.50;99.90
59067;DHT22;44854;50.838;4.438;2022-10-30T21:57:15;16.40;99.90
59067;DHT22;44854;50.838;4.438;2022-10-30T21:59:40;16.40;99.90
